Time;durP1;ratioP1;P1;durP2;ratioP2;P2;SDS_P1;SDS_P2;PMS_P1;PMS_P2;Temp;Humidity;BMP_temperature;BMP_pressure;BME280_temperature;BME280_humidity;BME280_pressure;Samples;Min_cycle;Max_cycle;Signal;HPM_P1;HPM_P2
2023/09/13 00:01:51;;;;;;;5.80;3.70;;;22.20;99.90;;;22.48;71.41;100833.50;6112290;22;97582;-72
2023/09/13 00:04:17;;;;;;;5.53;3.53;;;22.20;99.90;;;22.48;72.99;100834.34;6110501;22;97517;-72
2023/09/13 00:06:43;;;;;;;7.13;3.50;;;22.30;99.90;;;22.49;73.07;100829.81;6111692;22;97172;-72
2023/09/13 00:09:09;;;;;;;6.50;3.40;;;22.20;99.90;;;22.48;74.33;100828.97;6110261;22;97100;-72
2023/09/13 00:11:38;;;;;;;6.80;3.50;;;22.20;99.90;;;22.49;71.15;100829.81;6085516;22;97045;-72
2023/09/13 00:14:04;;;;;;;4.35;3.30;;;22.20;99.90;;;22.50;72.14;100832.38;6060654;22;97137;-72
2023/09/13 00:16:30;;;;;;;4.47;2.60;;;22.30;99.90;;;22.51;69.71;100834.09;6058740;22;97761;-72
2023/09/13 00:18:56;;;;;;;5.63;3.67;;;22.30;99.90;;;22.53;73.66;100834.81;6087929;22;97136;-72
2023/09/13 00:21:22;;;;;;;5.77;3.90;;;22.30;99.90;;;22.51;73.43;100834.09;6080951;22;102378;-72
2023/09/13 00:23:48;;;;;;;5.17;3.23;;;22.30;99.90;;;22.51;71.81;100833.25;6112677;22;97230;-72
2023/09/13 00:26:14;;;;;;;5.80;3.73;;;22.20;99.90;;;22.53;74.39;100842.03;6112281;22;98895;-72
2023/09/13 00:28:40;;;;;;;7.03;4.30;;;22.30;99.90;;;22.53;73.18;100836.66;6084256;22;100716;-72
2023/09/13 00:31:09;;;;;;;7.57;5.00;;;22.30;99.90;;;22.54;74.26;100836.53;6085633;22;97253;-72
2023/09/13 00:33:36;;;;;;;8.87;4.70;;;22.30;99.90;;;22.53;72.49;100839.34;6106945;22;97066;-72
2023/09/13 00:36:02;;;;;;;7.60;4.57;;;22.30;99.90;;;22.52;71.87;100848.38;6081494;22;97146;-72
2023/09/13 00:38:28;;;;;;;8.07;5.10;;;22.30;99.90;;;22.51;72.45;100852.91;6107233;22;97486;-73
2023/09/13 00:40:54;;;;;;;9.47;5.70;;;22.30;99.90;;;22.53;72.43;100855.47;6085293;22;102214;-73
2023/09/13 00:43:20;;;;;;;8.63;5.60;;;22.30;99.90;;;22.51;72.44;100868.19;6059912;22;96822;-73
2023/09/13 00:45:48;;;;;;;10.10;5.70;;;22.30;99.90;;;22.53;74.09;100863.53;6060444;22;97156;-72
2023/09/13 00:48:14;;;;;;;8.67;5.33;;;22.30;99.90;;;22.54;72.56;100870.59;6107065;22;97154;-73
2023/09/13 00:50:42;;;;;;;10.53;6.17;;;22.30;99.90;;;22.55;74.83;100862.41;6083467;22;100241;-72
2023/09/13 00:53:09;;;;;;;7.60;5.50;;;22.30;99.90;;;22.55;71.41;100866.94;6104716;22;97517;-72
2023/09/13 00:55:36;;;;;;;11.00;6.00;;;22.30;99.90;;;22.56;74.39;100868.66;6106238;22;97144;-72
2023/09/13 00:58:04;;;;;;;8.67;5.50;;;22.30;99.90;;;22.57;74.82;100870.38;6103841;22;97163;-72
2023/09/13 01:00:34;;;;;;;12.43;6.03;;;22.30;99.90;;;22.57;72.74;100862.31;6086890;22;99693;-74
2023/09/13 01:03:03;;;;;;;9.50;5.90;;;22.30;99.90;;;22.55;72.05;100872.31;6101588;22;97266;-75
2023/09/13 01:05:29;;;;;;;7.63;5.73;;;22.30;99.90;;;22.56;71.35;100871.34;6089073;22;97632;-72
2023/09/13 01:07:55;;;;;;;9.53;5.80;;;22.30;99.90;;;22.56;70.75;100868.66;6081903;22;114499;-72
2023/09/13 01:10:21;;;;;;;10.40;6.07;;;22.30;99.90;;;22.55;74.21;100866.94;6057809;22;99950;-72
2023/09/13 01:12:47;;;;;;;9.43;6.53;;;22.30;99.90;;;22.54;73.60;100865.25;6106379;22;96958;-72
2023/09/13 01:15:14;;;;;;;12.77;5.90;;;22.30;99.90;;;22.55;72.57;100875.00;6084264;22;96936;-72
2023/09/13 01:17:59;;;;;;;13.30;6.70;;;22.30;99.90;;;22.52;73.41;100883.31;6101250;22;97911;-72
2023/09/13 01:20:46;;;;;;;10.17;6.43;;;22.30;99.90;;;22.50;73.04;100885.28;6109659;22;97474;-72
2023/09/13 01:24:19;;;;;;;7.23;4.73;;;22.30;99.90;;;22.49;72.05;100886.28;6108265;22;97221;-72
2023/09/13 01:27:18;;;;;;;11.40;5.70;;;22.30;99.90;;;22.46;72.66;100881.16;6048932;23;97059;-72
2023/09/13 01:29:44;;;;;;;9.90;5.00;;;22.20;99.90;;;22.44;70.07;100891.19;6034590;23;101944;-72
2023/09/13 01:32:10;;;;;;;11.40;6.03;;;22.20;99.90;;;22.45;72.15;100882.13;6042249;23;97367;-72
2023/09/13 01:34:36;;;;;;;11.97;6.33;;;22.20;99.90;;;22.48;70.44;100881.88;6045818;23;99249;-72
2023/09/13 01:37:04;;;;;;;10.33;5.80;;;22.20;99.90;;;22.49;69.72;100883.59;6063599;22;101169;-73
2023/09/13 01:39:30;;;;;;;10.47;6.37;;;22.30;99.90;;;22.50;72.45;100886.16;6104623;22;97415;-71
2023/09/13 01:42:05;;;;;;;9.10;5.63;;;22.30;99.90;;;22.52;72.76;100883.31;6086545;22;97776;-73
2023/09/13 01:44:32;;;;;;;9.57;6.03;;;22.30;99.90;;;22.52;69.83;100878.81;6112503;22;96975;-70
2023/09/13 01:47:01;;;;;;;9.07;6.03;;;22.30;99.90;;;22.54;71.44;100876.00;6110809;22;101316;-72
2023/09/13 01:49:28;;;;;;;16.13;6.60;;;22.30;99.90;;;22.54;72.93;100881.38;6111853;22;99248;-72
2023/09/13 01:51:54;;;;;;;10.83;6.17;;;22.30;99.90;;;22.53;73.65;100885.03;6087658;22;98149;-73
2023/09/13 01:54:33;;;;;;;9.20;5.70;;;22.30;99.90;;;22.51;73.71;100897.75;6088133;22;97369;-72
2023/09/13 01:56:59;;;;;;;10.87;5.73;;;22.30;99.90;;;22.50;72.10;100896.03;6112065;22;97313;-73
2023/09/13 01:59:28;;;;;;;8.30;4.90;;;22.30;99.90;;;22.49;70.37;100888.97;6082429;22;96886;-73
2023/09/13 02:01:54;;;;;;;11.17;6.93;;;22.20;99.90;;;22.49;72.87;100894.34;6085967;22;101812;-71
2023/09/13 02:04:20;;;;;;;11.47;6.57;;;22.20;99.90;;;22.48;73.31;100892.63;6087221;22;97160;-72
2023/09/13 02:06:45;;;;;;;11.27;6.33;;;22.20;99.90;;;22.48;71.86;100898.84;6114290;22;96687;-70
2023/09/13 02:09:12;;;;;;;10.03;6.20;;;22.20;99.90;;;22.47;73.09;100899.00;6084097;22;109612;-72
2023/09/13 02:11:38;;;;;;;12.97;6.63;;;22.20;99.90;;;22.47;73.30;100913.28;6109411;22;97458;-73
2023/09/13 02:14:04;;;;;;;14.73;6.60;;;22.20;99.90;;;22.47;71.96;100909.75;6098838;22;97233;-72
2023/09/13 02:16:30;;;;;;;15.60;6.53;;;22.30;99.90;;;22.48;70.67;100908.75;6087506;22;97320;-72
2023/09/13 02:18:57;;;;;;;9.73;6.07;;;22.30;99.90;;;22.47;69.54;100899.00;6111799;22;96925;-72
2023/09/13 02:21:23;;;;;;;14.23;6.13;;;22.30;99.90;;;22.46;72.15;100900.81;6112756;22;97720;-72
2023/09/13 02:23:49;;;;;;;14.60;6.87;;;22.30;99.90;;;22.47;71.28;100901.69;6085745;22;97315;-72
2023/09/13 02:26:23;;;;;;;11.70;6.47;;;22.30;99.90;;;22.48;70.81;100900.69;6084699;22;97029;-72
2023/09/13 02:28:49;;;;;;;12.57;6.40;;;22.30;99.90;;;22.49;70.63;100897.88;6108428;22;97506;-72
2023/09/13 02:31:22;;;;;;;10.80;6.47;;;22.30;99.90;;;22.52;71.62;100899.47;6080175;22;97267;-72
2023/09/13 02:33:48;;;;;;;12.87;5.97;;;22.30;99.90;;;22.51;72.26;100908.50;6081900;22;97152;-72
2023/09/13 02:36:14;;;;;;;11.23;6.67;;;22.30;99.90;;;22.51;70.62;100913.88;6110544;22;97117;-72
2023/09/13 02:38:40;;;;;;;15.33;6.80;;;22.30;99.90;;;22.52;71.14;100915.59;6112275;22;118483;-72
2023/09/13 02:41:06;;;;;;;3.33;2.73;;;22.30;99.90;;;22.51;69.37;100919.25;6113548;22;99454;-72
2023/09/13 02:43:32;;;;;;;15.17;7.47;;;22.30;99.90;;;22.50;71.46;100922.91;6113562;22;102797;-72
2023/09/13 02:45:57;;;;;;;13.73;6.63;;;22.30;99.90;;;22.50;71.25;100915.72;6083586;22;97517;-71
2023/09/13 02:48:23;;;;;;;11.67;6.07;;;22.30;99.90;;;22.51;71.59;100920.09;6106510;22;121728;-72
2023/09/13 02:50:49;;;;;;;12.17;6.60;;;22.30;99.90;;;22.48;70.35;100914.13;6081907;22;97527;-73
2023/09/13 02:53:15;;;;;;;13.97;7.33;;;22.20;99.90;;;22.49;71.37;100921.22;6108602;22;103808;-72
2023/09/13 02:55:41;;;;;;;14.43;7.13;;;22.30;99.90;;;22.49;72.87;100916.69;6110363;22;97367;-72
2023/09/13 02:58:08;;;;;;;15.00;7.17;;;22.30;99.90;;;22.51;72.72;100919.25;6087420;22;97240;-75
2023/09/13 03:00:34;;;;;;;10.30;4.40;;;22.30;99.90;;;22.51;70.50;100916.56;6088462;22;97259;-72
2023/09/13 03:03:00;;;;;;;15.53;7.33;;;22.30;99.90;;;22.52;72.51;100915.59;6109374;22;97117;-73
2023/09/13 03:05:26;;;;;;;9.60;5.70;;;22.30;99.90;;;22.48;70.93;100924.88;6079546;22;97405;-72
2023/09/13 03:07:54;;;;;;;10.63;5.43;;;22.30;99.90;;;22.47;69.51;100928.56;6110412;22;97265;-72
2023/09/13 03:10:20;;;;;;;14.40;7.10;;;22.20;99.90;;;22.46;72.51;100925.00;6112492;22;99811;-71
2023/09/13 03:12:46;;;;;;;11.77;5.73;;;22.20;99.90;;;22.46;71.54;100937.59;6111952;22;98178;-71
2023/09/13 03:15:11;;;;;;;14.37;8.13;;;22.30;99.90;;;22.47;71.91;100933.94;6079731;22;105607;-72
2023/09/13 03:17:37;;;;;;;15.50;7.77;;;22.30;99.90;;;22.48;72.15;100935.63;6114779;22;97357;-72
2023/09/13 03:20:04;;;;;;;14.00;6.90;;;22.30;99.90;;;22.49;69.98;100929.28;6107049;22;97399;-72
2023/09/13 03:22:29;;;;;;;16.57;8.10;;;22.30;99.90;;;22.49;70.29;100934.66;6077015;22;97410;-72
2023/09/13 03:24:55;;;;;;;19.03;9.33;;;22.30;99.90;;;22.49;72.15;100940.03;6111322;22;97104;-73
2023/09/13 03:27:21;;;;;;;19.57;8.67;;;22.30;99.90;;;22.48;70.79;100935.63;6108443;22;97095;-72
2023/09/13 03:29:47;;;;;;;14.77;7.33;;;22.30;99.90;;;22.47;69.75;100933.94;6081917;22;99142;-72
2023/09/13 03:32:13;;;;;;;17.63;9.07;;;22.30;99.90;;;22.47;70.29;100939.31;6108995;22;96919;-71
2023/09/13 03:34:39;;;;;;;17.00;8.90;;;22.30;99.90;;;22.47;71.08;100933.94;6115781;22;97439;-72
2023/09/13 03:37:05;;;;;;;18.93;9.17;;;22.30;99.90;;;22.48;71.78;100930.25;6105770;22;100865;-72
2023/09/13 03:39:31;;;;;;;19.73;9.70;;;22.30;99.90;;;22.48;70.90;100932.94;6103983;22;96978;-72
2023/09/13 03:41:57;;;;;;;17.03;8.97;;;22.30;99.90;;;22.48;71.95;100930.25;6105897;22;97589;-72
2023/09/13 03:44:23;;;;;;;22.23;10.40;;;22.30;99.90;;;22.48;70.38;100930.25;6082799;22;96781;-72
2023/09/13 03:46:49;;;;;;;23.87;9.60;;;22.30;99.90;;;22.50;71.38;100933.69;6083324;22;110600;-72
2023/09/13 03:49:15;;;;;;;16.77;9.03;;;22.30;99.90;;;22.48;70.45;100936.50;6105395;22;97511;-72
2023/09/13 03:51:41;;;;;;;16.53;8.27;;;22.30;99.90;;;22.50;70.91;100942.59;6113952;22;97398;-71
2023/09/13 03:54:07;;;;;;;19.50;9.60;;;22.30;99.90;;;22.48;69.76;100939.19;6081230;22;96913;-72
2023/09/13 03:56:33;;;;;;;20.57;9.20;;;22.30;99.90;;;22.48;70.82;100936.50;6110159;22;98077;-72
2023/09/13 03:58:59;;;;;;;20.43;10.10;;;22.30;99.90;;;22.47;71.69;100937.47;6076808;22;98869;-72
2023/09/13 04:01:25;;;;;;;21.03;9.93;;;22.30;99.90;;;22.46;71.73;100937.59;6083386;22;97370;-72
2023/09/13 04:03:51;;;;;;;23.70;9.90;;;22.30;99.90;;;22.45;71.00;100938.59;6084504;22;97451;-73
2023/09/13 04:06:17;;;;;;;23.37;10.13;;;22.30;99.90;;;22.45;71.66;100941.25;6108083;22;110339;-72
2023/09/13 04:08:43;;;;;;;22.40;10.07;;;22.30;99.90;;;22.45;70.40;100941.25;6085253;22;99358;-72
2023/09/13 04:11:09;;;;;;;20.20;9.57;;;22.20;99.90;;;22.47;69.49;100944.69;6113092;22;97241;-72
2023/09/13 04:13:35;;;;;;;23.17;10.50;;;22.30;99.90;;;22.48;70.96;100941.00;6110764;22;99086;-73
2023/09/13 04:16:06;;;;;;;20.97;10.17;;;22.30;99.90;;;22.49;70.31;100942.72;6111893;22;97367;-72
2023/09/13 04:18:47;;;;;;;22.43;10.50;;;22.30;99.90;;;22.50;69.22;100936.38;6111188;22;97085;-72
2023/09/13 04:21:13;;;;;;;22.47;10.03;;;22.30;99.90;;;22.49;71.10;100931.97;5997069;22;97500;-72
2023/09/13 04:23:39;;;;;;;24.93;11.07;;;22.30;99.90;;;22.48;69.30;100931.13;6112414;22;97066;-73
2023/09/13 04:26:05;;;;;;;27.07;10.30;;;22.30;99.90;;;22.49;68.77;100937.34;6081542;22;114135;-73
2023/09/13 04:28:32;;;;;;;22.30;10.47;;;22.30;99.90;;;22.50;69.83;100928.28;6109831;22;97032;-72
2023/09/13 04:30:59;;;;;;;26.97;11.43;;;22.30;99.90;;;22.52;71.27;100939.78;6105157;22;97043;-72
2023/09/13 04:33:51;;;;;;;27.77;12.13;;;22.30;99.90;;;22.52;71.96;100931.72;6086254;22;97398;-72
2023/09/13 04:36:17;;;;;;;23.50;9.97;;;22.30;99.90;;;22.49;72.02;100942.72;6077756;22;101574;-72
2023/09/13 04:38:43;;;;;;;17.20;8.27;;;22.30;99.90;;;22.45;71.73;100935.88;6083141;22;97768;-73
2023/09/13 04:41:13;;;;;;;20.10;8.20;;;22.30;99.90;;;22.42;72.76;100931.63;6090457;22;96945;-72
2023/09/13 04:43:39;;;;;;;11.07;5.67;;;22.20;99.90;;;22.39;70.04;100939.06;6087194;22;97699;-72
2023/09/13 04:46:06;;;;;;;18.33;9.17;;;22.20;99.90;;;22.39;72.83;100953.34;6084614;22;97276;-72
2023/09/13 04:48:33;;;;;;;19.30;10.07;;;22.20;99.90;;;22.37;72.65;100943.69;6084939;22;97188;-71
2023/09/13 04:50:59;;;;;;;20.03;9.10;;;22.20;99.90;;;22.33;73.35;100947.63;6111712;22;97422;-72
2023/09/13 04:53:25;;;;;;;21.23;10.17;;;22.10;99.90;;;22.32;73.20;100952.16;6085197;22;97692;-72
2023/09/13 04:55:52;;;;;;;21.00;10.77;;;22.10;99.90;;;22.30;71.66;100951.41;6108582;22;97866;-73
2023/09/13 04:58:18;;;;;;;23.47;10.47;;;22.10;99.90;;;22.31;71.05;100954.97;6109375;22;98659;-72
2023/09/13 05:00:43;;;;;;;25.10;12.27;;;22.10;99.90;;;22.32;72.30;100951.28;6111004;22;102407;-74
2023/09/13 05:03:09;;;;;;;25.50;12.00;;;22.10;99.90;;;22.34;73.05;100957.41;6115592;22;97132;-74
2023/09/13 05:05:35;;;;;;;28.80;12.40;;;22.10;99.90;;;22.33;71.78;100958.38;6109852;22;97556;-72
2023/09/13 05:08:04;;;;;;;26.67;12.43;;;22.10;99.90;;;22.34;71.07;100960.94;6108684;22;97112;-74
2023/09/13 05:10:31;;;;;;;26.93;11.97;;;22.10;99.90;;;22.33;71.09;100963.75;6081654;22;96936;-72
2023/09/13 05:12:57;;;;;;;28.13;11.87;;;22.10;99.90;;;22.33;71.18;100967.28;6060373;22;97861;-73
2023/09/13 05:15:24;;;;;;;28.30;12.40;;;22.10;99.90;;;22.32;70.77;100978.16;6110543;22;101710;-74
2023/09/13 05:17:50;;;;;;;31.80;14.00;;;22.10;99.90;;;22.32;72.80;100973.63;6107449;22;97268;-74
2023/09/13 05:20:16;;;;;;;31.20;13.70;;;22.10;99.90;;;22.33;73.25;100979.88;6112691;22;97360;-74
2023/09/13 05:22:42;;;;;;;30.80;14.07;;;22.10;99.90;;;22.30;71.10;100975.59;6117387;22;97403;-74
2023/09/13 05:25:08;;;;;;;31.90;14.53;;;22.10;99.90;;;22.32;73.10;100979.00;6114914;22;100983;-73
2023/09/13 05:27:34;;;;;;;31.97;14.30;;;22.10;99.90;;;22.29;72.82;100975.72;6111947;22;97157;-73
2023/09/13 05:30:01;;;;;;;34.80;14.37;;;22.10;99.90;;;22.28;72.44;100985.63;6112663;22;96903;-74
2023/09/13 05:32:26;;;;;;;30.57;13.57;;;22.10;99.90;;;22.26;71.12;100990.22;6087006;22;96895;-74
2023/09/13 05:34:53;;;;;;;33.33;14.57;;;22.10;99.90;;;22.26;71.23;100984.84;6113027;22;97533;-74
2023/09/13 05:37:19;;;;;;;17.50;9.13;;;22.10;99.90;;;22.25;71.54;100980.47;6114908;22;104970;-74
2023/09/13 05:39:45;;;;;;;29.13;13.07;;;22.10;99.90;;;22.20;72.04;100991.59;6109499;22;97149;-74
2023/09/13 05:42:10;;;;;;;26.93;13.37;;;22.00;99.90;;;22.16;71.89;100995.50;6089528;22;97219;-74
2023/09/13 05:44:36;;;;;;;28.83;13.20;;;22.00;99.90;;;22.18;71.04;100995.38;6083687;22;98957;-73
2023/09/13 05:47:02;;;;;;;29.17;13.07;;;22.00;99.90;;;22.17;71.64;100997.22;6061731;22;99238;-73
2023/09/13 05:49:29;;;;;;;24.97;11.43;;;22.00;99.90;;;22.16;70.82;101000.88;6086237;22;101383;-72
2023/09/13 05:51:55;;;;;;;26.37;11.50;;;22.00;99.90;;;22.16;70.34;101000.88;6061063;22;96961;-72
2023/09/13 05:54:21;;;;;;;25.20;11.87;;;22.00;99.90;;;22.17;70.72;101005.28;6112745;22;97328;-73
2023/09/13 05:56:47;;;;;;;26.13;12.63;;;22.00;99.90;;;22.15;70.68;101004.53;6111411;22;97429;-74
2023/09/13 05:59:12;;;;;;;27.43;12.80;;;22.00;99.90;;;22.15;71.41;101009.91;6086334;22;97406;-73
2023/09/13 06:01:38;;;;;;;27.70;12.63;;;22.00;99.90;;;22.13;70.87;101017.25;6110592;22;104794;-74
2023/09/13 06:04:05;;;;;;;20.27;9.90;;;21.90;99.90;;;22.11;70.92;101027.22;6112096;22;97530;-74
2023/09/13 06:06:31;;;;;;;22.70;12.13;;;21.90;99.90;;;22.10;71.13;101017.44;6081321;22;98995;-74
2023/09/13 06:08:58;;;;;;;25.60;11.83;;;21.90;99.90;;;22.09;71.06;101023.81;6112939;22;97427;-74
2023/09/13 06:11:24;;;;;;;24.80;11.63;;;21.90;99.90;;;22.08;71.26;101030.16;6079617;22;97477;-75
2023/09/13 06:13:51;;;;;;;25.20;12.17;;;21.90;99.90;;;22.09;71.24;101039.91;6109243;22;101762;-73
2023/09/13 06:16:17;;;;;;;25.07;12.27;;;21.90;99.90;;;22.10;71.33;101030.03;6110249;22;97416;-74
2023/09/13 06:18:43;;;;;;;28.10;12.73;;;21.90;99.90;;;22.08;71.41;101040.91;6115855;22;96961;-74
2023/09/13 06:21:09;;;;;;;22.27;10.30;;;21.90;99.90;;;22.06;71.16;101042.84;6107296;22;104419;-73
2023/09/13 06:23:39;;;;;;;25.37;12.27;;;21.90;99.90;;;22.11;70.79;101047.84;6085144;22;98247;-73
2023/09/13 06:26:06;;;;;;;31.67;12.80;;;21.90;99.90;;;22.12;71.44;101045.06;6086982;22;98725;-73
2023/09/13 06:28:33;;;;;;;23.80;12.17;;;21.90;99.90;;;22.14;71.03;101051.19;6084614;22;97463;-75
2023/09/13 06:31:00;;;;;;;25.40;12.10;;;22.00;99.90;;;22.15;70.84;101052.03;6086167;22;97277;-73
2023/09/13 06:33:27;;;;;;;28.53;12.07;;;22.00;99.90;;;22.15;71.57;101047.53;6082951;22;98570;-74
2023/09/13 06:35:56;;;;;;;22.00;10.63;;;21.90;99.90;;;22.13;71.47;101046.78;6078172;22;97699;-72
2023/09/13 06:38:22;;;;;;;25.87;11.90;;;22.00;99.90;;;22.10;71.34;101047.00;6109505;22;97945;-74
2023/09/13 06:40:47;;;;;;;25.77;11.43;;;21.90;99.90;;;22.05;71.88;101051.88;6057673;22;97518;-75
2023/09/13 06:43:15;;;;;;;23.50;10.40;;;21.90;99.90;;;22.08;71.63;101051.66;6115557;22;97404;-75
2023/09/13 06:45:41;;;;;;;21.17;11.07;;;21.90;99.90;;;22.04;71.78;101060.91;6081780;22;97799;-74
2023/09/13 06:48:07;;;;;;;22.37;11.10;;;21.90;99.90;;;22.04;71.59;101060.03;6083668;22;97582;-75
2023/09/13 06:50:33;;;;;;;24.43;11.23;;;21.80;99.90;;;22.05;71.46;101057.25;6102133;22;97334;-77
2023/09/13 06:53:06;;;;;;;20.33;10.03;;;21.90;99.90;;;22.03;71.16;101058.31;6100837;22;97839;-76
2023/09/13 06:55:33;;;;;;;22.13;10.53;;;21.90;99.90;;;22.03;71.36;101059.19;6064826;22;101113;-78
2023/09/13 06:58:03;;;;;;;21.30;10.60;;;21.90;99.90;;;22.03;71.53;101067.25;6099758;22;97524;-78
2023/09/13 07:00:29;;;;;;;19.87;9.87;;;21.90;99.90;;;22.05;71.05;101068.00;6070403;22;97214;-76
2023/09/13 07:02:55;;;;;;;19.53;9.73;;;21.90;99.90;;;22.07;71.28;101066.06;6065591;22;97394;-74
2023/09/13 07:05:21;;;;;;;20.90;10.00;;;21.90;99.90;;;22.06;71.25;101067.03;6064652;22;99022;-77
2023/09/13 07:07:47;;;;;;;20.20;9.77;;;21.90;99.90;;;22.04;70.85;101082.38;6062448;22;97159;-77
2023/09/13 07:10:13;;;;;;;17.93;9.20;;;21.90;99.90;;;22.01;71.52;101077.25;6038524;22;97296;-77
2023/09/13 07:12:39;;;;;;;20.97;9.60;;;21.90;99.90;;;21.97;71.24;101079.28;6073037;22;99607;-76
2023/09/13 07:15:08;;;;;;;16.53;8.20;;;21.80;99.90;;;21.94;71.40;101081.38;6072910;22;96802;-77
2023/09/13 07:17:35;;;;;;;18.23;9.20;;;21.70;99.90;;;21.94;71.55;101086.72;6095208;22;97303;-77
2023/09/13 07:20:01;;;;;;;15.93;8.23;;;21.70;99.90;;;21.85;71.40;101092.81;6092335;22;97301;-77
2023/09/13 07:22:27;;;;;;;14.63;8.43;;;21.60;99.90;;;21.83;71.33;101092.91;6066548;22;100410;-74
2023/09/13 07:24:53;;;;;;;14.57;7.83;;;21.60;99.90;;;21.87;71.32;101093.56;6094303;22;97053;-75
2023/09/13 07:27:19;;;;;;;16.23;8.70;;;21.70;99.90;;;21.87;71.20;101091.72;6100475;22;97247;-74
2023/09/13 07:29:45;;;;;;;22.23;9.17;;;21.70;99.90;;;21.89;71.24;101105.03;6103376;22;97318;-78
2023/09/13 07:32:11;;;;;;;17.43;7.87;;;21.70;99.90;;;21.90;71.22;101096.88;6097571;22;97805;-76
2023/09/13 07:34:37;;;;;;;14.07;8.17;;;21.70;99.90;;;21.90;70.72;101106.75;6097837;22;97109;-77
2023/09/13 07:37:04;;;;;;;13.20;7.17;;;21.70;99.90;;;21.89;70.55;101107.72;6077199;22;97473;-77
2023/09/13 07:39:29;;;;;;;16.03;7.43;;;21.70;99.90;;;21.86;70.80;101111.50;6077930;22;97793;-76
2023/09/13 07:41:56;;;;;;;14.57;7.53;;;21.70;99.90;;;21.84;71.16;101107.19;6101976;22;96901;-78
2023/09/13 07:44:22;;;;;;;15.60;7.90;;;21.60;99.90;;;21.85;70.88;101103.56;6076597;22;97761;-77
2023/09/13 07:46:48;;;;;;;14.77;7.80;;;21.70;99.90;;;21.90;70.80;101112.13;6102052;22;96977;-76
2023/09/13 07:49:14;;;;;;;13.00;7.40;;;21.70;99.90;;;21.93;70.83;101119.94;6079213;22;97584;-77
2023/09/13 07:51:40;;;;;;;13.83;8.43;;;21.70;99.90;;;21.92;70.51;101124.44;6070592;22;97799;-76
2023/09/13 07:54:07;;;;;;;14.67;7.87;;;21.80;99.90;;;21.84;70.48;101131.38;6071898;22;97578;-76
2023/09/13 07:56:37;;;;;;;15.00;8.30;;;21.70;99.90;;;21.87;71.03;101128.47;6057654;22;97423;-74
2023/09/13 07:59:07;;;;;;;16.27;7.43;;;21.70;99.90;;;21.89;70.86;101130.06;6072600;22;96743;-75
2023/09/13 08:01:33;;;;;;;20.70;8.53;;;21.70;99.90;;;21.92;70.85;101126.28;6076423;22;97349;-77
2023/09/13 08:03:59;;;;;;;20.53;7.87;;;21.80;99.90;;;21.95;70.75;101132.28;6097174;22;97541;-76
2023/09/13 08:06:25;;;;;;;14.43;7.40;;;21.80;99.90;;;21.99;70.71;101127.53;6095757;22;97289;-77
2023/09/13 08:08:52;;;;;;;15.30;8.10;;;21.90;99.90;;;22.03;70.73;101138.91;6064168;22;98593;-76
2023/09/13 08:11:21;;;;;;;13.77;8.00;;;21.90;99.90;;;22.07;70.43;101140.41;6099744;22;97963;-75
2023/09/13 08:13:47;;;;;;;13.43;8.27;;;21.90;99.90;;;22.10;70.83;101143.72;6081369;22;100906;-77
2023/09/13 08:16:13;;;;;;;16.60;6.97;;;21.90;99.90;;;22.05;70.38;101143.22;6079768;22;97494;-76
2023/09/13 08:18:39;;;;;;;18.93;8.03;;;21.90;99.90;;;22.06;70.67;101147.63;6063883;22;99183;-75
2023/09/13 08:21:05;;;;;;;13.80;7.63;;;21.90;99.90;;;22.10;70.42;101156.28;6097596;22;97916;-76
2023/09/13 08:23:31;;;;;;;13.23;6.70;;;21.90;99.90;;;22.10;70.39;101151.78;6072212;22;97807;-77
2023/09/13 08:25:57;;;;;;;12.27;5.60;;;21.90;99.90;;;22.14;69.72;101157.78;6090291;22;96957;-76
2023/09/13 08:28:24;;;;;;;16.03;6.53;;;21.90;99.90;;;22.11;69.33;101166.06;6066044;22;98854;-76
2023/09/13 08:30:51;;;;;;;14.67;6.10;;;22.00;99.90;;;22.11;69.70;101168.75;6039127;22;98799;-77
2023/09/13 08:33:16;;;;;;;14.33;7.10;;;21.90;99.90;;;22.09;69.30;101173.38;6093151;22;98062;-78
2023/09/13 08:35:43;;;;;;;13.33;6.47;;;21.90;99.90;;;22.11;69.29;101169.59;6068440;22;97504;-77
2023/09/13 08:38:09;;;;;;;11.77;6.30;;;21.90;99.90;;;22.11;68.78;101177.66;6096976;22;97168;-77
2023/09/13 08:40:42;;;;;;;11.80;6.80;;;21.90;99.90;;;22.15;69.34;101187.22;6060499;22;97390;-78
2023/09/13 08:43:12;;;;;;;12.43;6.20;;;22.00;99.90;;;22.16;69.22;101191.63;6092210;22;100796;-78
2023/09/13 08:45:39;;;;;;;15.47;7.10;;;22.00;99.90;;;22.16;69.38;101191.63;6084941;22;98698;-75
2023/09/13 08:48:10;;;;;;;14.83;7.03;;;22.00;99.90;;;22.20;68.92;101201.16;6094435;22;97361;-77
2023/09/13 08:50:37;;;;;;;12.20;6.93;;;22.10;99.90;;;22.19;68.99;101204.81;6070397;22;99426;-78
2023/09/13 08:53:05;;;;;;;11.50;6.03;;;22.00;99.90;;;22.17;68.76;101201.41;6093775;22;97667;-76
2023/09/13 08:55:32;;;;;;;16.00;6.63;;;22.00;99.90;;;22.18;68.94;101205.78;6071967;22;97385;-76
2023/09/13 08:58:00;;;;;;;13.27;6.40;;;22.10;99.90;;;22.25;68.73;101204.34;6072445;22;97165;-75
2023/09/13 09:00:30;;;;;;;12.70;6.70;;;22.10;99.90;;;22.27;68.71;101201.53;6096335;22;97796;-77
2023/09/13 09:03:01;;;;;;;10.90;6.40;;;22.10;99.90;;;22.30;68.88;101203.16;6091226;22;97307;-77
2023/09/13 09:05:28;;;;;;;11.80;6.40;;;22.20;99.90;;;22.32;69.04;101214.63;6091032;22;97003;-78
2023/09/13 09:07:57;;;;;;;12.87;6.37;;;22.20;99.90;;;22.34;68.96;101212.69;6067250;22;97510;-76
2023/09/13 09:10:24;;;;;;;13.47;6.70;;;22.20;99.90;;;22.34;68.69;101212.69;6068584;22;97191;-78
2023/09/13 09:12:58;;;;;;;14.33;6.93;;;22.20;99.90;;;22.33;68.82;101216.34;6098776;22;97101;-77
2023/09/13 09:15:25;;;;;;;14.33;7.00;;;22.20;99.90;;;22.31;68.59;101218.31;6051253;22;98570;-76
2023/09/13 09:17:55;;;;;;;10.47;5.73;;;22.20;99.90;;;22.31;68.60;101215.63;6071772;22;97805;-76
2023/09/13 09:20:28;;;;;;;15.00;6.63;;;22.20;99.90;;;22.31;68.03;101213.78;6098487;22;97215;-75
2023/09/13 09:22:59;;;;;;;15.47;7.90;;;22.20;99.90;;;22.26;67.98;101216.78;6101088;22;98726;-77
2023/09/13 09:25:25;;;;;;;9.50;5.07;;;22.10;99.90;;;22.27;68.69;101218.50;6074979;22;97370;-77
2023/09/13 09:27:52;;;;;;;17.83;6.83;;;22.10;99.90;;;22.25;69.42;101225.84;6079623;22;97114;-77
2023/09/13 09:30:33;;;;;;;14.87;6.87;;;22.10;99.90;;;22.23;68.91;101219.72;6107741;22;97303;-76
2023/09/13 09:33:06;;;;;;;12.97;7.13;;;22.10;99.90;;;22.26;68.71;101224.84;6103037;22;99600;-77
2023/09/13 09:35:36;;;;;;;10.57;6.13;;;22.10;99.90;;;22.24;68.86;101226.81;6109531;22;97299;-77
2023/09/13 09:38:03;;;;;;;13.43;6.80;;;22.10;99.90;;;22.29;68.88;101225.63;6111123;22;97529;-75
2023/09/13 09:40:38;;;;;;;14.33;6.53;;;22.10;99.90;;;22.29;68.46;101225.63;6106578;22;99116;-75
2023/09/13 09:43:04;;;;;;;13.15;5.75;;;22.20;99.90;;;22.29;68.38;101220.25;6083733;22;97364;-50
2023/09/13 09:45:29;;;;;;;13.10;6.30;;;22.20;99.90;;;22.31;68.37;101231.75;6112716;22;97589;-49
2023/09/13 09:47:56;;;;;;;11.80;6.43;;;22.20;99.90;;;22.31;68.00;101234.44;6076131;22;97455;-52
2023/09/13 09:50:22;;;;;;;11.63;6.45;;;22.20;99.90;;;22.31;68.00;101229.06;6084120;23;97167;-50
2023/09/13 09:52:50;;;;;;;13.18;5.63;;;22.20;99.90;;;22.34;68.15;101231.50;6061880;23;98457;-50
2023/09/13 09:55:16;;;;;;;10.65;5.47;;;22.20;99.90;;;22.33;68.41;101227.09;6060498;23;97499;-47
2023/09/13 09:57:51;;;;;;;11.23;5.70;;;22.20;99.90;;;22.31;68.35;101234.44;6056811;23;97501;-51
2023/09/13 10:00:17;;;;;;;11.70;6.10;;;22.20;99.90;;;22.26;68.32;101232.91;6084573;22;101699;-46
2023/09/13 10:02:45;;;;;;;10.97;6.00;;;22.20;99.90;;;22.27;68.08;101240.00;6043681;23;97087;-45
2023/09/13 10:05:16;;;;;;;12.00;5.30;;;22.20;99.90;;;22.26;68.14;101238.28;6085323;23;96934;-47
2023/09/13 10:07:57;;;;;;;9.97;4.97;;;22.20;99.90;;;22.29;68.42;101236.38;6086963;22;97469;-48